Wilbur Observed Data For Previous 48 Hours

Caption
Day and Hour Reservoir Elevation (behind dam)* Tailwater Elevation (below dam)* Average Hourly Discharge*
3/25/2017 2 AM EDT 1,645.27 1,582.50 212
3/25/2017 3 AM EDT 1,645.52 1,582.51 215
3/25/2017 4 AM EDT 1,645.75 1,582.52 216
3/25/2017 5 AM EDT 1,645.97 1,582.52 220
3/25/2017 6 AM EDT 1,646.21 1,582.53 220
3/25/2017 7 AM EDT 1,646.43 1,582.54 225
3/25/2017 8 AM EDT 1,646.61 1,582.55 225
3/25/2017 9 AM EDT 1,646.49 1,582.86 175
3/25/2017 10 AM EDT 1,646.25 1,582.86 150
3/25/2017 11 AM EDT 1,645.98 1,582.85 148
3/25/2017 12 PM EDT 1,645.72 1,582.84 145
3/25/2017 1 PM EDT 1,645.45 1,582.83 145
3/25/2017 2 PM EDT 1,645.20 1,582.82 143
3/25/2017 3 PM EDT 1,644.92 1,582.81 140
3/25/2017 4 PM EDT 1,644.65 1,582.81 140
3/25/2017 5 PM EDT 1,644.39 1,582.78 137
3/25/2017 6 PM EDT 1,644.12 1,582.78 135
3/25/2017 7 PM EDT 1,643.98 1,582.76 135
3/25/2017 8 PM EDT 1,645.52 1,582.82 139
3/25/2017 9 PM EDT 1,647.03 1,582.87 148
3/25/2017 10 PM EDT 1,646.92 1,582.87 155
3/25/2017 11 PM EDT 1,646.67 1,582.86 150
3/26/2017 12 AM EDT 1,646.39 1,582.84 150
3/26/2017 1 AM EDT 1,646.13 1,582.83 150
3/26/2017 2 AM EDT 1,645.87 1,582.82 146
3/26/2017 3 AM EDT 1,645.61 1,582.81 145
3/26/2017 4 AM EDT 1,645.35 1,582.80 145
3/26/2017 5 AM EDT 1,645.09 1,582.78 141
3/26/2017 6 AM EDT 1,644.83 1,582.77 140
3/26/2017 7 AM EDT 1,646.10 1,582.81 143
3/26/2017 8 AM EDT 1,645.98 1,582.82 145
3/26/2017 9 AM EDT 1,645.76 1,582.81 145
3/26/2017 10 AM EDT 1,645.50 1,582.80 145
3/26/2017 11 AM EDT 1,645.25 1,582.79 144
3/26/2017 12 PM EDT 1,644.99 1,582.78 140
3/26/2017 1 PM EDT 1,644.72 1,582.76 140
3/26/2017 2 PM EDT 1,644.47 1,582.75 138
3/26/2017 3 PM EDT 1,644.19 1,582.74 135
3/26/2017 4 PM EDT 1,643.95 1,582.72 135
3/26/2017 5 PM EDT 1,643.68 1,582.71 133
3/26/2017 6 PM EDT 1,644.93 1,582.76 136
3/26/2017 7 PM EDT 1,644.88 1,582.76 140
3/26/2017 8 PM EDT 1,644.65 1,582.75 140
3/26/2017 9 PM EDT 1,645.96 1,582.79 142
3/26/2017 10 PM EDT 1,647.41 1,582.84 151
3/26/2017 11 PM EDT 1,647.31 1,582.84 155
3/27/2017 12 AM EDT 1,647.07 1,582.84 155
3/27/2017 1 AM EDT 1,646.80 1,582.83 153
3/27/2017 2 AM EDT 1,646.56 1,582.82 150
3/27/2017 3 AM EDT 1,646.30 1,582.81 150
3/27/2017 4 AM EDT 1,646.05 1,582.80 149
3/27/2017 5 AM EDT 1,645.80 1,582.79 145
3/27/2017 6 AM EDT 1,645.56 1,582.78 145
3/27/2017 7 AM EDT 1,645.31 1,582.76 145
3/27/2017 8 AM EDT 1,646.60 1,582.81 147
3/27/2017 9 AM EDT 1,646.53 1,582.81 150
3/27/2017 10 AM EDT 1,646.30 1,582.80 150
3/27/2017 11 AM EDT 1,646.02 1,582.78 149
3/27/2017 12 PM EDT 1,645.77 1,582.78 145
3/27/2017 1 PM EDT 1,645.53 1,582.76 145
3/27/2017 2 PM EDT 1,646.82 1,582.81 147

Elevations are in feet above sea level. Discharges are in cubic feet per second and are reported at the end of the hour.